KGAI/GAI METAR and TAF weather

Enter ICAO airport designator
Station Type Date Time Source
KGAI METAR 2020/09/22 23:56 UTC NOAA

KGAI 222356Z AUTO 00000KT 10SM CLR 12/09 A3004 RMK AO2 SLP186 T01220089 10206 20122 55006


Station Type Date Time Source
KGAI Decoded METAR 2020/09/22 23:56 UTC NOAA

Station name not available
Sep 22, 2020 - 07:56 PM EDT / 2020.09.22 2356 UTC
Wind: Calm:0
Visibility: 10 mile(s):0
Sky conditions: clear
Temperature: 54.0 F (12.2 C)
Dew Point: 48.0 F (8.9 C)
Relative Humidity: 80%
Pressure (altimeter): 30.04 in. Hg (1017 hPa)
Pressure tendency: 0.02 inches (0.6 hPa) lower than three hours ago
ob: KGAI 222356Z AUTO 00000KT 10SM CLR 12/09 A3004 RMK AO2 SLP186 T01220089 10206 20122 55006
cycle: 0

Station Type Date Time Source
KGAI TAF UTC NOAA

Error!

Example: see airport list